Search for airport 
image banner adimage banner adimage banner ad
image banner ad

CFA7 - Taltheilei Narrows

Located in , Canada

ICAO - CFA7, IATA - GSL

Data provided by Airmate  

General information

Coordinates: N62°35'50" W111°32'29"
Elevation is 617 feet MSL.
Magnetic variation is 16.28° East
View others Airports in Northwest Territories

Operational data

Special qualification required
Current time UTC:
Current local time:
Weather at : CYLK - Lutselk'e ( 48 km )
METAR: CYLK 221700Z VRB04G15KT 25SM SKC 04/M02 A2998 RMK SLP163
TAF: TAF CYLK 221546Z 2216/2224 VRB03KT WS005/16020KT P6SM SKC FM221900 16012G22KT P6SM SKC RMK NXT FCST BY 221900Z
View NOTAMs / SUP AIP / TFR affecting this airport [VIEW]
Communications frequencies: [VIEW]

Runways:

RWY identifierQFULength (ft)Width (ft)SurfaceLDA (ft)
0549°5643120GRAVE5643
23229°5643120GRAVE5643

Airport contact information

Address: Canada

Satellite view of CFA7